createdAt,value
2023-04-15T00:02:20.063Z,8.17
2023-04-15T00:04:51.223Z,8.20
2023-04-15T00:07:21.776Z,8.24
2023-04-15T00:09:57.938Z,8.28
2023-04-15T00:12:29.071Z,8.34
2023-04-15T00:14:59.462Z,8.36
2023-04-15T00:17:30.086Z,8.47
2023-04-15T00:20:00.507Z,8.52
2023-04-15T00:22:31.028Z,8.54
2023-04-15T00:25:04.108Z,8.62
2023-04-15T00:27:34.452Z,8.68
2023-04-15T00:30:05.539Z,8.74
2023-04-15T00:32:36.202Z,8.78
2023-04-15T00:35:09.325Z,8.77
2023-04-15T00:37:39.940Z,8.81
2023-04-15T00:40:16.209Z,8.82
2023-04-15T00:42:47.056Z,8.79
2023-04-15T00:45:17.656Z,8.87
2023-04-15T00:47:49.858Z,8.86
2023-04-15T00:50:20.710Z,8.92
2023-04-15T00:52:51.108Z,8.93
2023-04-15T00:55:24.076Z,8.97
2023-04-15T00:57:59.982Z,8.98
2023-04-15T01:00:30.681Z,9.02
2023-04-15T01:03:01.148Z,9.00
2023-04-15T01:05:34.541Z,9.00
2023-04-15T01:08:04.916Z,9.04
2023-04-15T01:10:38.337Z,9.09
2023-04-15T01:13:10.348Z,9.11
2023-04-15T01:15:40.852Z,9.13
2023-04-15T01:18:11.603Z,9.10
2023-04-15T01:20:42.726Z,9.09
2023-04-15T01:23:13.484Z,9.04
2023-04-15T01:25:47.763Z,8.94
2023-04-15T01:28:18.401Z,9.05
2023-04-15T01:30:48.831Z,9.08
2023-04-15T01:33:19.293Z,9.13
2023-04-15T01:35:49.667Z,9.14
2023-04-15T01:38:20.094Z,9.13
2023-04-15T01:40:53.184Z,9.17
2023-04-15T01:43:23.507Z,9.19
2023-04-15T01:45:53.725Z,9.21
2023-04-15T01:48:24.298Z,9.25
2023-04-15T01:50:57.789Z,9.26
2023-04-15T01:53:28.529Z,9.25
2023-04-15T01:56:01.614Z,9.28
2023-04-15T01:58:35.302Z,9.33
2023-04-15T02:01:10.675Z,9.33
2023-04-15T02:03:41.600Z,9.39
2023-04-15T02:06:11.908Z,9.36
2023-04-15T02:08:42.439Z,9.21
2023-04-15T02:11:15.819Z,9.26
2023-04-15T02:13:46.698Z,9.30
2023-04-15T02:16:20.766Z,9.32
2023-04-15T02:18:52.291Z,9.35
2023-04-15T02:21:22.862Z,9.37
2023-04-15T02:23:54.255Z,9.36
2023-04-15T02:26:27.990Z,9.41
2023-04-15T02:28:58.714Z,9.35
2023-04-15T02:31:29.569Z,9.40
2023-04-15T02:34:00.474Z,9.44
2023-04-15T02:36:31.850Z,9.44
2023-04-15T02:39:03.333Z,9.47
2023-04-15T02:41:36.892Z,9.45
2023-04-15T02:44:11.302Z,9.50
2023-04-15T02:46:41.829Z,9.52
2023-04-15T02:49:12.189Z,9.49
2023-04-15T02:51:42.546Z,9.49
2023-04-15T02:54:13.489Z,9.48
2023-04-15T02:56:46.322Z,9.50
2023-04-15T02:59:16.691Z,9.52
2023-04-15T03:01:47.109Z,9.48
2023-04-15T03:04:17.578Z,9.48
2023-04-15T03:06:47.890Z,9.44
2023-04-15T03:09:18.221Z,9.49
2023-04-15T03:11:55.299Z,9.51
2023-04-15T03:14:26.055Z,9.48
2023-04-15T03:16:56.564Z,9.49
2023-04-15T03:19:26.959Z,9.49
2023-04-15T03:21:57.406Z,9.50
2023-04-15T03:24:29.362Z,9.51
2023-04-15T03:27:02.266Z,9.50
2023-04-15T03:29:32.498Z,9.49
2023-04-15T03:32:02.831Z,9.44
2023-04-15T03:34:33.073Z,9.24
2023-04-15T03:37:03.305Z,9.38
2023-04-15T03:39:33.686Z,9.31
2023-04-15T03:42:06.951Z,9.29
2023-04-15T03:44:37.431Z,9.19
2023-04-15T03:47:07.866Z,9.12
2023-04-15T03:49:39.266Z,9.09
2023-04-15T03:52:09.595Z,9.02
2023-04-15T03:54:40.334Z,8.96
2023-04-15T03:57:13.176Z,8.91
2023-04-15T03:59:43.512Z,8.89
2023-04-15T04:02:13.814Z,8.81
2023-04-15T04:04:44.674Z,8.83
2023-04-15T04:07:19.003Z,8.85
2023-04-15T04:09:49.412Z,8.82
2023-04-15T04:12:22.445Z,8.82
2023-04-15T04:14:52.724Z,8.82
2023-04-15T04:17:23.078Z,8.81
2023-04-15T04:19:53.410Z,8.80
2023-04-15T04:22:26.388Z,8.78
2023-04-15T04:24:59.658Z,8.72
2023-04-15T04:27:32.435Z,8.72
2023-04-15T04:30:02.873Z,8.68
2023-04-15T04:32:34.525Z,8.68
2023-04-15T04:35:05.224Z,8.69
2023-04-15T04:37:35.506Z,8.75
2023-04-15T04:40:05.981Z,8.83
2023-04-15T04:42:40.137Z,8.93
2023-04-15T04:45:11.610Z,9.01
2023-04-15T04:47:41.868Z,9.12
2023-04-15T04:50:12.770Z,9.13
2023-04-15T04:52:43.081Z,9.19
2023-04-15T04:55:16.235Z,9.22
2023-04-15T04:57:49.121Z,9.31
2023-04-15T05:00:21.543Z,9.38
2023-04-15T05:02:52.018Z,9.47
2023-04-15T05:05:22.621Z,9.62
2023-04-15T05:07:53.703Z,9.81
2023-04-15T05:10:24.023Z,9.93
2023-04-15T05:12:56.846Z,10.25
2023-04-15T05:15:27.985Z,10.91
2023-04-15T05:17:58.269Z,11.86
2023-04-15T05:20:28.586Z,12.58
2023-04-15T05:22:58.804Z,12.40
2023-04-15T05:25:29.194Z,13.07
2023-04-15T05:28:02.054Z,13.83
2023-04-15T05:30:32.700Z,14.40
2023-04-15T05:33:03.091Z,14.69
2023-04-15T05:35:33.398Z,15.09
2023-04-15T05:38:03.937Z,15.54
2023-04-15T05:40:34.739Z,15.73
2023-04-15T05:43:09.046Z,15.90
2023-04-15T05:45:39.356Z,15.95
2023-04-15T05:48:10.526Z,15.90
2023-04-15T05:50:43.852Z,15.74
2023-04-15T05:53:14.383Z,15.72
2023-04-15T05:55:44.856Z,15.51
2023-04-15T05:58:17.692Z,15.71
2023-04-15T06:00:48.072Z,15.76
2023-04-15T06:03:19.390Z,15.33
2023-04-15T06:05:50.115Z,14.59
2023-04-15T06:08:33.961Z,15.09
2023-04-15T06:11:05.276Z,15.67
2023-04-15T06:13:38.159Z,15.71
2023-04-15T06:16:09.509Z,15.58
2023-04-15T06:18:39.729Z,16.02
2023-04-15T06:21:10.185Z,15.37
2023-04-15T06:23:41.373Z,15.10
2023-04-15T06:26:12.141Z,14.51
2023-04-15T06:28:45.853Z,14.10
2023-04-15T06:31:16.256Z,14.01
2023-04-15T06:33:46.912Z,14.38
2023-04-15T06:36:17.199Z,13.93
2023-04-15T06:38:47.416Z,13.71
2023-04-15T06:41:18.291Z,13.40
2023-04-15T06:43:51.731Z,14.33
2023-04-15T06:46:22.487Z,14.33
2023-04-15T06:48:52.967Z,14.27
2023-04-15T06:51:26.547Z,14.97
2023-04-15T06:53:58.345Z,14.86
2023-04-15T06:56:28.792Z,14.04
2023-04-15T06:59:02.359Z,13.60
2023-04-15T07:01:32.974Z,13.35
2023-04-15T07:04:04.190Z,13.61
2023-04-15T07:06:36.070Z,14.25
2023-04-15T07:09:07.715Z,14.18
2023-04-15T07:11:43.409Z,14.29
2023-04-15T07:14:17.473Z,14.21
2023-04-15T07:16:50.311Z,13.97
2023-04-15T07:19:21.423Z,13.96
2023-04-15T07:21:54.669Z,13.67
2023-04-15T07:24:27.049Z,13.62
2023-04-15T07:26:59.474Z,13.34
2023-04-15T07:29:33.815Z,13.04
2023-04-15T07:32:04.131Z,13.39
2023-04-15T07:34:34.425Z,13.33
2023-04-15T07:37:04.782Z,13.38
2023-04-15T07:39:35.016Z,13.36
2023-04-15T07:42:05.639Z,13.55
2023-04-15T07:44:38.580Z,13.42
2023-04-15T07:47:09.543Z,13.14
2023-04-15T07:49:40.259Z,13.46
2023-04-15T07:52:11.758Z,14.03
2023-04-15T07:54:42.124Z,14.49
2023-04-15T07:57:12.506Z,13.95
2023-04-15T08:00:00.193Z,14.56
2023-04-15T08:02:32.031Z,15.30
2023-04-15T08:05:03.590Z,15.58
2023-04-15T08:07:34.234Z,14.80
2023-04-15T08:10:07.263Z,13.72
2023-04-15T08:12:37.690Z,14.02
2023-04-15T08:15:13.357Z,14.42
2023-04-15T08:17:43.967Z,14.05
2023-04-15T08:20:14.936Z,14.80
2023-04-15T08:22:45.353Z,15.06
2023-04-15T08:25:17.695Z,14.10
2023-04-15T08:27:48.025Z,14.87
2023-04-15T08:30:21.903Z,15.21
2023-04-15T08:32:52.565Z,15.81
2023-04-15T08:35:23.191Z,15.20
2023-04-15T08:37:53.488Z,15.04
2023-04-15T08:40:26.146Z,14.83
2023-04-15T08:43:01.012Z,14.78
2023-04-15T08:45:34.429Z,14.67
2023-04-15T08:48:08.035Z,14.79
2023-04-15T08:50:38.352Z,14.83
2023-04-15T08:53:09.059Z,14.49
2023-04-15T08:55:49.365Z,14.74
2023-04-15T08:58:20.096Z,15.00
2023-04-15T09:00:53.208Z,15.23
2023-04-15T09:03:25.446Z,14.66
2023-04-15T09:05:56.789Z,15.01
2023-04-15T09:08:30.004Z,15.23
2023-04-15T09:11:00.329Z,15.26
2023-04-15T09:13:30.786Z,15.51
2023-04-15T09:16:05.273Z,16.25
2023-04-15T09:18:38.628Z,16.65
2023-04-15T09:21:12.633Z,16.97
2023-04-15T09:23:56.941Z,17.11
2023-04-15T09:26:37.651Z,17.37
2023-04-15T09:29:09.763Z,16.91
2023-04-15T09:31:43.811Z,17.04
2023-04-15T09:34:14.626Z,16.75
2023-04-15T09:37:00.133Z,16.70
2023-04-15T09:39:30.572Z,16.34
2023-04-15T09:42:24.545Z,16.20
2023-04-15T09:44:55.406Z,15.83
2023-04-15T09:47:34.178Z,15.37
2023-04-15T09:50:04.977Z,15.09
2023-04-15T09:52:35.579Z,15.14
2023-04-15T09:55:09.111Z,14.41
2023-04-15T09:57:41.482Z,14.04
2023-04-15T10:00:13.386Z,13.35
2023-04-15T10:02:47.392Z,13.39
2023-04-15T10:05:19.661Z,13.23
2023-04-15T10:07:50.364Z,12.91
2023-04-15T10:10:21.208Z,12.55
2023-04-15T10:12:54.611Z,12.51
2023-04-15T10:15:26.640Z,12.75
2023-04-15T10:18:05.594Z,13.00
2023-04-15T10:20:37.322Z,13.04
2023-04-15T10:23:09.894Z,13.35
2023-04-15T10:25:42.142Z,13.59
2023-04-15T10:28:12.840Z,13.80
2023-04-15T10:30:43.437Z,13.87
2023-04-15T10:33:17.565Z,13.87
2023-04-15T10:35:49.205Z,13.87
2023-04-15T10:38:34.749Z,13.98
2023-04-15T10:41:21.217Z,13.98
2023-04-15T10:43:53.836Z,14.04
2023-04-15T10:46:38.287Z,13.73
2023-04-15T10:49:17.930Z,13.43
2023-04-15T10:51:50.486Z,13.49
2023-04-15T10:54:36.549Z,13.24
2023-04-15T10:57:22.244Z,13.39
2023-04-15T11:00:13.841Z,13.41
2023-04-15T11:02:49.997Z,13.10
2023-04-15T11:05:24.279Z,13.33
2023-04-15T11:07:57.202Z,13.38
2023-04-15T11:10:58.341Z,13.16
2023-04-15T11:13:33.349Z,13.21
2023-04-15T11:16:05.618Z,12.78
2023-04-15T11:18:38.215Z,12.90
2023-04-15T11:24:37.687Z,13.13
2023-04-15T11:27:08.625Z,13.41
2023-04-15T11:29:41.694Z,13.98
2023-04-15T11:32:12.898Z,14.51
2023-04-15T11:34:43.175Z,14.94
2023-04-15T11:37:14.004Z,14.95
2023-04-15T11:39:47.006Z,14.81
2023-04-15T11:42:20.474Z,15.07
2023-04-15T11:44:50.821Z,15.09
2023-04-15T11:47:27.509Z,14.81
2023-04-15T11:49:57.996Z,15.11
2023-04-15T11:52:28.324Z,15.37
2023-04-15T11:55:10.877Z,15.22
2023-04-15T11:57:41.094Z,15.31
2023-04-15T12:00:12.983Z,15.62
2023-04-15T12:02:43.719Z,15.54
2023-04-15T12:05:14.970Z,15.47
2023-04-15T12:08:05.069Z,15.60
2023-04-15T12:10:38.017Z,15.32
2023-04-15T12:13:10.361Z,14.47
2023-04-15T12:15:42.152Z,14.33
2023-04-15T12:18:20.917Z,13.85
2023-04-15T12:20:51.259Z,13.87
2023-04-15T12:23:23.452Z,13.39
2023-04-15T12:25:57.796Z,13.67
2023-04-15T12:28:28.247Z,13.98
2023-04-15T12:30:59.676Z,14.06
2023-04-15T12:33:36.756Z,14.12
2023-04-15T12:36:08.527Z,14.22
2023-04-15T12:38:39.075Z,14.54
2023-04-15T12:41:12.290Z,14.72
2023-04-15T12:43:42.602Z,14.81
2023-04-15T12:46:12.805Z,14.85
2023-04-15T12:48:43.806Z,14.75
2023-04-15T12:51:14.732Z,14.35
2023-04-15T12:53:45.099Z,14.28
2023-04-15T12:56:18.398Z,14.13
2023-04-15T12:58:50.342Z,13.93
2023-04-15T13:01:21.209Z,13.05
2023-04-15T13:03:52.351Z,12.94
2023-04-15T13:06:22.971Z,12.56
2023-04-15T13:08:58.621Z,12.59
2023-04-15T13:11:34.073Z,12.22
2023-04-15T13:14:05.689Z,12.64
2023-04-15T13:16:36.579Z,12.61
2023-04-15T13:19:07.660Z,12.57
2023-04-15T13:21:37.940Z,12.50
2023-04-15T13:24:09.598Z,12.52
2023-04-15T13:26:42.906Z,12.52
2023-04-15T13:29:14.358Z,12.45
2023-04-15T13:31:44.767Z,12.16
2023-04-15T13:34:15.281Z,11.81
2023-04-15T13:36:46.228Z,11.64
2023-04-15T13:39:16.836Z,11.37
2023-04-15T13:41:54.698Z,11.44
2023-04-15T13:44:25.213Z,11.30
2023-04-15T13:46:55.998Z,11.13
2023-04-15T13:49:26.353Z,11.19
2023-04-15T13:51:56.638Z,11.15
2023-04-15T13:54:37.735Z,11.21
2023-04-15T13:57:11.421Z,11.12
2023-04-15T13:59:44.313Z,11.13
2023-04-15T14:02:14.937Z,11.28
2023-04-15T14:04:45.559Z,11.05
2023-04-15T14:07:16.220Z,11.11
2023-04-15T14:09:46.901Z,11.18
2023-04-15T14:12:19.812Z,11.19
2023-04-15T14:14:50.120Z,11.34
2023-04-15T14:17:20.555Z,11.57
2023-04-15T14:19:51.125Z,11.85
2023-04-15T14:22:21.528Z,11.92
2023-04-15T14:24:53.857Z,12.19
2023-04-15T14:27:29.056Z,12.43
2023-04-15T14:30:04.397Z,12.55
2023-04-15T14:32:35.035Z,12.37
2023-04-15T14:35:05.433Z,12.52
2023-04-15T14:37:36.279Z,12.67
2023-04-15T14:40:07.305Z,12.33
2023-04-15T14:42:40.300Z,12.55
2023-04-15T14:45:12.241Z,12.49
2023-04-15T14:47:42.804Z,12.45
2023-04-15T14:50:17.882Z,12.52
2023-04-15T14:52:48.410Z,12.06
2023-04-15T14:55:19.336Z,12.27
2023-04-15T14:57:52.332Z,12.22
2023-04-15T15:00:24.808Z,12.43
2023-04-15T15:02:55.132Z,12.50
2023-04-15T15:05:26.188Z,12.52
2023-04-15T15:07:56.742Z,12.79
2023-04-15T15:10:33.104Z,13.04
2023-04-15T15:13:21.045Z,13.17
2023-04-15T15:15:59.091Z,13.39
2023-04-15T15:18:30.181Z,13.46
2023-04-15T15:21:01.064Z,13.41
2023-04-15T15:23:32.191Z,13.63
2023-04-15T15:26:05.019Z,13.75
2023-04-15T15:28:37.915Z,13.94
2023-04-15T15:31:08.277Z,13.99
2023-04-15T15:33:41.311Z,13.84
2023-04-15T15:36:13.397Z,13.81
2023-04-15T15:38:44.401Z,13.79
2023-04-15T15:41:19.553Z,13.73
2023-04-15T15:43:52.622Z,13.57
2023-04-15T15:46:24.479Z,13.41
2023-04-15T15:48:54.870Z,13.43
2023-04-15T15:51:26.899Z,13.22
2023-04-15T15:53:57.213Z,13.18
2023-04-15T15:56:27.545Z,13.07
2023-04-15T15:59:00.522Z,13.05
2023-04-15T16:01:31.246Z,13.01
2023-04-15T16:04:03.061Z,12.98
2023-04-15T16:06:35.083Z,13.00
2023-04-15T16:09:05.962Z,13.00
2023-04-15T16:11:37.055Z,12.95
2023-04-15T16:14:10.001Z,12.92
2023-04-15T16:16:42.136Z,12.95
2023-04-15T16:19:12.483Z,12.92
2023-04-15T16:21:43.031Z,12.87
2023-04-15T16:24:13.329Z,12.47
2023-04-15T16:26:43.990Z,12.62
2023-04-15T16:29:16.897Z,12.73
2023-04-15T16:31:47.390Z,12.77
2023-04-15T16:34:18.835Z,12.76
2023-04-15T16:36:49.261Z,12.71
2023-04-15T16:39:21.021Z,12.62
2023-04-15T16:41:51.295Z,12.60
2023-04-15T16:44:24.284Z,12.51
2023-04-15T16:46:57.022Z,12.42
2023-04-15T16:49:27.388Z,12.38
2023-04-15T16:51:57.810Z,12.34
2023-04-15T16:54:29.366Z,12.29
2023-04-15T16:57:00.189Z,12.20
2023-04-15T16:59:33.006Z,12.12
2023-04-15T17:02:03.434Z,12.02
2023-04-15T17:04:36.851Z,11.94
2023-04-15T17:07:07.377Z,11.85
2023-04-15T17:09:37.737Z,11.77
2023-04-15T17:12:08.650Z,11.69
2023-04-15T17:14:41.723Z,11.62
2023-04-15T17:17:12.151Z,11.53
2023-04-15T17:19:49.796Z,11.47
2023-04-15T17:22:22.194Z,11.38
2023-04-15T17:24:52.496Z,11.31
2023-04-15T17:27:22.935Z,11.21
2023-04-15T17:29:55.849Z,11.17
2023-04-15T17:32:30.946Z,11.06
2023-04-15T17:35:01.321Z,11.00
2023-04-15T17:37:32.002Z,10.89
2023-04-15T17:40:02.257Z,10.82
2023-04-15T17:42:32.798Z,10.76
2023-04-15T17:45:06.142Z,10.70
2023-04-15T17:47:38.247Z,10.61
2023-04-15T17:50:10.161Z,10.56
2023-04-15T17:52:40.669Z,10.50
2023-04-15T17:55:11.674Z,10.43
2023-04-15T17:57:42.102Z,10.41
2023-04-15T18:00:17.727Z,10.36
2023-04-15T18:02:49.591Z,10.31
2023-04-15T18:05:20.419Z,10.27
2023-04-15T18:07:51.114Z,10.19
2023-04-15T18:10:21.777Z,10.15
2023-04-15T18:12:52.459Z,10.07
2023-04-15T18:15:25.291Z,10.01
2023-04-15T18:17:56.010Z,9.96
2023-04-15T18:20:26.814Z,9.89
2023-04-15T18:22:57.643Z,9.83
2023-04-15T18:25:27.890Z,9.75
2023-04-15T18:27:58.788Z,9.66
2023-04-15T18:30:31.621Z,9.60
2023-04-15T18:33:02.305Z,9.51
2023-04-15T18:35:32.804Z,9.44
2023-04-15T18:38:03.198Z,9.42
2023-04-15T18:40:33.627Z,9.35
2023-04-15T18:43:03.956Z,9.29
2023-04-15T18:45:37.437Z,9.29
2023-04-15T18:48:11.021Z,9.26
2023-04-15T18:50:41.575Z,9.23
2023-04-15T18:53:14.824Z,9.21
2023-04-15T18:55:45.488Z,9.16
2023-04-15T18:58:16.186Z,9.13
2023-04-15T19:00:49.161Z,9.11
2023-04-15T19:03:19.573Z,9.07
2023-04-15T19:05:50.407Z,9.01
2023-04-15T19:08:20.882Z,8.94
2023-04-15T19:10:51.346Z,8.89
2023-04-15T19:13:22.888Z,8.86
2023-04-15T19:15:56.015Z,8.82
2023-04-15T19:18:26.782Z,8.80
2023-04-15T19:20:57.218Z,8.78
2023-04-15T19:23:30.176Z,8.73
2023-04-15T19:26:00.590Z,8.71
2023-04-15T19:28:31.179Z,8.71
2023-04-15T19:31:04.288Z,8.74
2023-04-15T19:33:34.960Z,8.71
2023-04-15T19:36:08.060Z,8.71
2023-04-15T19:38:38.695Z,8.71
2023-04-15T19:41:10.609Z,8.71
2023-04-15T19:43:40.838Z,8.72
2023-04-15T19:46:14.690Z,8.69
2023-04-15T19:48:45.350Z,8.70
2023-04-15T19:51:21.966Z,8.75
2023-04-15T19:53:54.135Z,8.74
2023-04-15T19:56:25.411Z,8.76
2023-04-15T19:59:00.135Z,8.75
2023-04-15T20:01:34.741Z,8.74
2023-04-15T20:04:05.347Z,8.72
2023-04-15T20:06:36.034Z,8.73
2023-04-15T20:09:10.330Z,8.70
2023-04-15T20:12:45.671Z,8.55
2023-04-15T20:14:33.233Z,8.63
2023-04-15T20:17:06.173Z,8.63
2023-04-15T20:19:36.645Z,8.60
2023-04-15T20:22:07.069Z,8.57
2023-04-15T20:24:37.338Z,8.54
2023-04-15T20:27:07.694Z,8.50
2023-04-15T20:29:38.065Z,8.42
2023-04-15T20:32:12.091Z,8.45
2023-04-15T20:34:43.051Z,8.38
2023-04-15T20:37:13.800Z,8.37
2023-04-15T20:39:44.297Z,8.31
2023-04-15T20:42:14.690Z,8.37
2023-04-15T20:44:44.939Z,8.40
2023-04-15T20:47:20.754Z,8.42
2023-04-15T20:49:51.268Z,8.41
2023-04-15T20:52:21.555Z,8.34
2023-04-15T20:54:54.952Z,8.34
2023-04-15T20:57:30.363Z,8.34
2023-04-15T21:00:00.731Z,8.31
2023-04-15T21:02:34.053Z,8.28
2023-04-15T21:05:04.474Z,8.29
2023-04-15T21:07:35.917Z,8.23
2023-04-15T21:10:06.650Z,8.29
2023-04-15T21:12:37.699Z,8.30
2023-04-15T21:15:09.078Z,8.32
2023-04-15T21:17:43.299Z,8.35
2023-04-15T21:20:15.038Z,8.34
2023-04-15T21:22:45.486Z,8.35
2023-04-15T21:25:18.110Z,8.37
2023-04-15T21:27:48.666Z,8.41
2023-04-15T21:30:21.124Z,8.40
2023-04-15T21:32:55.927Z,8.40
2023-04-15T21:35:26.397Z,8.42
2023-04-15T21:37:56.886Z,8.41
2023-04-15T21:40:27.123Z,8.42
2023-04-15T21:42:57.485Z,8.40
2023-04-15T21:45:27.809Z,8.42
2023-04-15T21:48:08.404Z,8.46
2023-04-15T21:50:39.335Z,8.46
2023-04-15T21:53:10.846Z,8.52
2023-04-15T21:55:41.294Z,8.51
2023-04-15T21:58:11.707Z,8.56
2023-04-15T22:00:42.187Z,8.58
2023-04-15T22:03:15.375Z,8.60
2023-04-15T22:05:48.659Z,8.65
2023-04-15T22:08:19.516Z,8.62
2023-04-15T22:10:49.761Z,8.62
2023-04-15T22:13:20.279Z,8.61
2023-04-15T22:15:50.586Z,8.65
2023-04-15T22:18:23.980Z,8.67
2023-04-15T22:20:54.288Z,8.69
2023-04-15T22:23:24.635Z,8.67
2023-04-15T22:25:54.905Z,8.66
2023-04-15T22:28:25.211Z,8.65
2023-04-15T22:30:58.238Z,8.58
2023-04-15T22:33:31.148Z,8.56
2023-04-15T22:36:01.416Z,8.51
2023-04-15T22:38:34.283Z,8.47
2023-04-15T22:41:04.737Z,8.45
2023-04-15T22:43:35.111Z,8.43
2023-04-15T22:46:05.507Z,8.42
2023-04-15T22:48:38.430Z,8.37
2023-04-15T22:51:08.910Z,8.34
2023-04-15T22:53:39.186Z,8.30
2023-04-15T22:56:10.083Z,8.28
2023-04-15T22:58:40.423Z,8.27
2023-04-15T23:01:11.510Z,8.25
2023-04-15T23:03:57.413Z,8.25
2023-04-15T23:06:34.765Z,8.27
2023-04-15T23:09:05.265Z,8.31
2023-04-15T23:11:35.845Z,8.29
2023-04-15T23:14:06.145Z,8.41
2023-04-15T23:16:36.718Z,8.44
2023-04-15T23:19:09.883Z,8.47
2023-04-15T23:21:40.642Z,8.43
2023-04-15T23:24:11.056Z,8.38
2023-04-15T23:26:41.530Z,8.40
2023-04-15T23:29:12.035Z,8.36
2023-04-15T23:31:43.708Z,8.34
2023-04-15T23:34:16.686Z,8.31
2023-04-15T23:36:47.109Z,8.24
2023-04-15T23:39:17.414Z,8.18
2023-04-15T23:41:47.832Z,8.11
2023-04-15T23:44:21.680Z,8.06
2023-04-15T23:46:52.070Z,8.03
2023-04-15T23:49:25.048Z,8.00
2023-04-15T23:51:55.356Z,7.94
2023-04-15T23:54:25.771Z,7.92
2023-04-15T23:56:55.951Z,7.88
2023-04-15T23:59:28.790Z,7.82
